| time (UTC) | temp F | wind direction | speed MPH | gust MPH | rain 1hr in | rain 24hr in | rain mn in | humidity % | barometer mb |
| 20260901230012 | 63 | 190 | 0.0 | 0.0 | 0.00 | 1.89 | 1.89 | 82 | 1017.7 |
| 20260901230004 | 63 | 0 | 0.0 | 0.0 | 0.00 | 1.89 | 0.70 | 82 | 1017.5 |
| 20260901225504 | 63 | 0 | 0.0 | 0.0 | 0.00 | 1.89 | 0.70 | 82 | 1017.4 |
| 20260901224523 | 63 | 190 | 0.0 | 0.0 | 0.00 | 1.89 | 1.89 | 82 | 1017.6 |
| 20260901224503 | 63 | 0 | 0.0 | 0.0 | 0.00 | 1.89 | 0.70 | 82 | 1017.5 |
| 20260901224004 | 64 | 0 | 0.0 | 0.0 | 0.00 | 1.89 | 0.70 | 82 | 1017.4 |
| 20260901223504 | 64 | 0 | 0.0 | 0.0 | 0.00 | 1.89 | 0.70 | 82 | 1017.3 |
| 20260901223013 | 63 | 190 | 0.0 | 0.0 | 0.00 | 1.89 | 1.89 | 82 | 1017.4 |
| 20260901223005 | 64 | 0 | 0.0 | 0.0 | 0.00 | 1.89 | 0.70 | 82 | 1017.2 |
| 20260901222503 | 64 | 0 | 0.0 | 0.0 | 0.00 | 1.89 | 0.70 | 82 | 1017.2 |
| 20260901222004 | 64 | 0 | 0.0 | 0.0 | 0.00 | 1.89 | 0.70 | 82 | 1017.2 |
| 20260901221552 | 63 | 190 | 0.0 | 0.0 | 0.00 | 1.89 | 1.89 | 82 | 1017.5 |
| 20260901221004 | 64 | 0 | 0.0 | 0.0 | 0.00 | 1.89 | 0.70 | 82 | 1017.2 |
| 20260901220504 | 64 | 0 | 0.0 | 0.0 | 0.00 | 1.89 | 0.70 | 82 | 1017.1 |
| 20260901220012 | 63 | 190 | 0.0 | 0.0 | 0.00 | 1.89 | 1.89 | 82 | 1017.3 |
| 20260901215503 | 63 | 0 | 0.0 | 0.0 | 0.00 | 1.89 | 0.70 | 82 | 1017.1 |
| 20260901214511 | 63 | 190 | 0.0 | 0.0 | 0.00 | 1.89 | 1.89 | 82 | 1017.2 |
| 20260901214503 | 63 | 0 | 0.0 | 0.0 | 0.00 | 1.89 | 0.70 | 82 | 1017.1 |
| 20260901214004 | 63 | 0 | 0.0 | 0.0 | 0.00 | 1.89 | 0.70 | 82 | 1017.2 |
| 20260901213504 | 63 | 0 | 0.0 | 0.0 | 0.00 | 1.89 | 0.70 | 82 | 1017.1 |
| 20260901213020 | 63 | 190 | 0.0 | 0.0 | 0.00 | 1.89 | 1.89 | 82 | 1017.1 |
| 20260901213004 | 63 | 0 | 0.0 | 0.0 | 0.00 | 1.89 | 0.70 | 82 | 1016.9 |
| 20260901212504 | 63 | 0 | 0.0 | 0.0 | 0.00 | 1.89 | 0.70 | 82 | 1016.9 |
| 20260901212004 | 63 | 0 | 0.0 | 0.0 | 0.00 | 1.89 | 0.70 | 82 | 1016.9 |
| 20260901211515 | 63 | 190 | 0.0 | 0.0 | 0.00 | 1.89 | 1.89 | 82 | 1017.1 |
| 20260901211504 | 63 | 0 | 0.0 | 0.0 | 0.00 | 1.89 | 0.70 | 82 | 1016.9 |
| 20260901210013 | 63 | 190 | 0.0 | 0.0 | 0.00 | 1.89 | 1.89 | 82 | 1017.0 |
| 20260901210003 | 63 | 0 | 0.0 | 0.0 | 0.00 | 1.89 | 0.70 | 82 | 1016.9 |
| 20260901205504 | 63 | 191 | 0.0 | 3.0 | 0.00 | 1.89 | 0.70 | 82 | 1016.8 |
| 20260901205004 | 63 | 191 | 0.0 | 3.0 | 0.00 | 1.89 | 0.70 | 82 | 1016.7 |
| 20260901204516 | 63 | 190 | 0.0 | 0.0 | 0.00 | 1.89 | 1.89 | 82 | 1016.7 |
| 20260901204504 | 63 | 191 | 0.0 | 1.0 | 0.00 | 1.89 | 0.70 | 82 | 1016.7 |
| 20260901204004 | 63 | 191 | 0.0 | 1.0 | 0.00 | 1.89 | 0.70 | 82 | 1016.7 |
| 20260901203504 | 64 | 190 | 0.0 | 4.0 | 0.00 | 1.89 | 0.70 | 82 | 1016.6 |
| 20260901203013 | 63 | 190 | 0.0 | 4.0 | 0.00 | 1.89 | 1.89 | 82 | 1016.7 |
| 20260901203004 | 64 | 191 | 0.0 | 4.0 | 0.00 | 1.89 | 0.70 | 82 | 1016.6 |
| 20260901202504 | 64 | 191 | 0.0 | 2.0 | 0.00 | 1.89 | 0.70 | 82 | 1016.5 |
| 20260901202003 | 64 | 191 | 0.0 | 2.0 | 0.00 | 1.89 | 0.70 | 82 | 1016.4 |
| 20260901201512 | 63 | 190 | 0.0 | 1.0 | 0.00 | 1.89 | 1.89 | 82 | 1016.5 |
| 20260901201504 | 64 | 191 | 0.0 | 1.0 | 0.00 | 1.89 | 0.70 | 82 | 1016.4 |
| 20260901201004 | 64 | 191 | 0.0 | 2.0 | 0.00 | 1.89 | 0.70 | 82 | 1016.3 |
| 20260901200503 | 64 | 191 | 0.0 | 3.0 | 0.00 | 1.89 | 0.70 | 82 | 1016.4 |
| 20260901200025 | 64 | 190 | 0.0 | 3.0 | 0.00 | 1.89 | 1.89 | 82 | 1016.4 |
| 20260901200004 | 64 | 191 | 0.0 | 3.0 | 0.00 | 1.89 | 0.70 | 82 | 1016.3 |
| 20260901195504 | 65 | 191 | 0.0 | 2.0 | 0.01 | 1.89 | 0.70 | 82 | 1016.3 |
| 20260901195003 | 65 | 191 | 0.0 | 2.0 | 0.01 | 1.89 | 0.70 | 82 | 1016.3 |
| 20260901194514 | 64 | 190 | 0.0 | 1.0 | 0.01 | 1.89 | 1.89 | 82 | 1016.4 |
| 20260901193504 | 65 | 191 | 0.0 | 2.0 | 0.01 | 1.89 | 0.70 | 82 | 1016.3 |
| 20260901193013 | 64 | 190 | 0.0 | 0.0 | 0.02 | 1.89 | 1.89 | 82 | 1016.4 |
| 20260901193004 | 65 | 0 | 0.0 | 0.0 | 0.02 | 1.89 | 0.70 | 82 | 1016.2 |
| 20260901192504 | 65 | 191 | 0.0 | 1.0 | 0.02 | 1.89 | 0.70 | 82 | 1016.2 |
| 20260901192004 | 65 | 190 | 0.0 | 1.0 | 0.03 | 1.89 | 0.70 | 82 | 1016.2 |
| 20260901191520 | 65 | 190 | 0.0 | 1.0 | 0.03 | 1.89 | 1.89 | 82 | 1016.3 |
| 20260901191503 | 65 | 191 | 0.0 | 1.0 | 0.03 | 1.89 | 0.70 | 82 | 1016.1 |
| 20260901191004 | 66 | 191 | 0.0 | 4.0 | 0.04 | 1.89 | 0.70 | 82 | 1016.1 |
| 20260901190503 | 66 | 190 | 0.0 | 4.0 | 0.04 | 1.89 | 0.70 | 82 | 1016.1 |
| 20260901190020 | 65 | 190 | 0.0 | 2.0 | 0.04 | 1.89 | 1.89 | 82 | 1016.2 |
| 20260901185504 | 66 | 191 | 0.0 | 2.0 | 0.04 | 1.88 | 0.69 | 82 | 1016.2 |
| 20260901185004 | 66 | 191 | 0.0 | 4.0 | 0.04 | 1.88 | 0.69 | 82 | 1016.2 |
| 20260901184513 | 65 | 190 | 0.0 | 4.0 | 0.04 | 1.88 | 1.88 | 82 | 1016.2 |
| 20260901184504 | 66 | 191 | 0.0 | 4.0 | 0.04 | 1.88 | 0.69 | 82 | 1016.0 |
| 20260901183504 | 66 | 0 | 0.0 | 0.0 | 0.05 | 1.88 | 0.69 | 82 | 1016.1 |
| 20260901183012 | 66 | 190 | 0.0 | 5.0 | 0.04 | 1.87 | 1.87 | 82 | 1016.1 |
| 20260901183004 | 66 | 191 | 0.0 | 5.0 | 0.04 | 1.87 | 0.68 | 82 | 1016.0 |
| 20260901182503 | 66 | 191 | 0.0 | 5.0 | 0.04 | 1.87 | 0.68 | 82 | 1016.0 |
| 20260901182004 | 66 | 191 | 0.0 | 2.0 | 0.03 | 1.86 | 0.67 | 82 | 1015.9 |
| 20260901181519 | 66 | 190 | 0.0 | 2.0 | 0.03 | 1.86 | 1.86 | 82 | 1016.0 |
| 20260901181504 | 66 | 191 | 0.0 | 2.0 | 0.03 | 1.86 | 0.67 | 82 | 1015.9 |
| 20260901181003 | 67 | 0 | 0.0 | 0.0 | 0.02 | 1.85 | 0.66 | 82 | 1015.9 |
| 20260901180504 | 67 | 0 | 0.0 | 0.0 | 0.02 | 1.85 | 0.66 | 82 | 1015.8 |
| 20260901180013 | 66 | 190 | 0.0 | 0.0 | 0.01 | 1.84 | 1.84 | 82 | 1016.0 |
| 20260901180004 | 67 | 0 | 0.0 | 0.0 | 0.01 | 1.84 | 0.65 | 82 | 1015.8 |
| 20260901175504 | 67 | 0 | 0.0 | 0.0 | 0.02 | 1.84 | 0.65 | 82 | 1015.8 |
| 20260901175003 | 67 | 0 | 0.0 | 0.0 | 0.02 | 1.84 | 0.65 | 82 | 1015.7 |
| 20260901174513 | 66 | 190 | 0.0 | 0.0 | 0.03 | 1.84 | 1.84 | 82 | 1015.8 |
| 20260901174504 | 67 | 0 | 0.0 | 0.0 | 0.03 | 1.84 | 0.65 | 82 | 1015.6 |
| 20260901174005 | 67 | 0 | 0.0 | 0.0 | 0.04 | 1.83 | 0.64 | 82 | 1015.7 |
| 20260901173504 | 67 | 0 | 0.0 | 0.0 | 0.08 | 1.83 | 0.64 | 82 | 1015.7 |
| 20260901173012 | 66 | 190 | 0.0 | 0.0 | 0.25 | 1.83 | 1.83 | 82 | 1015.6 |
| 20260901172504 | 67 | 0 | 0.0 | 0.0 | 0.36 | 1.83 | 0.64 | 82 | 1015.4 |
| 20260901172004 | 67 | 0 | 0.0 | 0.0 | 0.42 | 1.83 | 0.64 | 82 | 1015.4 |
| 20260901171511 | 66 | 190 | 0.0 | 0.0 | 0.47 | 1.83 | 1.83 | 82 | 1015.4 |
| 20260901171003 | 66 | 0 | 0.0 | 0.0 | 0.48 | 1.83 | 0.64 | 82 | 1015.4 |
| 20260901170012 | 66 | 190 | 0.0 | 0.0 | 0.48 | 1.83 | 1.83 | 82 | 1015.3 |
| 20260901170004 | 66 | 191 | 0.0 | 1.0 | 0.48 | 1.83 | 0.64 | 82 | 1015.2 |
| 20260901165504 | 66 | 190 | 0.0 | 2.0 | 0.47 | 1.82 | 0.63 | 82 | 1015.3 |
| 20260901165004 | 66 | 190 | 0.0 | 2.0 | 0.47 | 1.82 | 0.63 | 82 | 1015.4 |
| 20260901164512 | 66 | 190 | 0.0 | 2.0 | 0.46 | 1.81 | 1.81 | 82 | 1015.1 |
| 20260901164504 | 66 | 191 | 0.0 | 2.0 | 0.46 | 1.81 | 0.62 | 82 | 1014.8 |
| 20260901164003 | 66 | 0 | 0.0 | 0.0 | 0.43 | 1.78 | 0.59 | 82 | 1014.8 |
| 20260901163504 | 66 | 0 | 0.0 | 0.0 | 0.38 | 1.73 | 0.54 | 82 | 1015.5 |
| 20260901163012 | 66 | 190 | 0.0 | 0.0 | 0.23 | 1.57 | 1.57 | 82 | 1015.8 |
| 20260901163004 | 66 | 0 | 0.0 | 0.0 | 0.23 | 1.57 | 0.38 | 82 | 1015.8 |
| 20260901161524 | 66 | 190 | 0.0 | 2.0 | 0.02 | 1.36 | 1.36 | 82 | 1015.6 |
| 20260901161004 | 67 | 190 | 0.0 | 2.0 | 0.01 | 1.35 | 0.16 | 82 | 1015.5 |
| 20260901160504 | 67 | 191 | 0.0 | 1.0 | 0.01 | 1.35 | 0.16 | 82 | 1015.4 |
| 20260901160116 | 66 | 190 | 0.0 | 1.0 | 0.01 | 1.35 | 1.35 | 82 | 1015.4 |
| 20260901160004 | 67 | 191 | 0.0 | 1.0 | 0.01 | 1.35 | 0.16 | 82 | 1015.4 |
| 20260901155504 | 67 | 0 | 0.0 | 0.0 | 0.02 | 1.35 | 0.16 | 82 | 1015.3 |
| 20260901155003 | 67 | 0 | 0.0 | 0.0 | 0.02 | 1.35 | 0.16 | 82 | 1015.4 |
| 20260901154603 | 66 | 190 | 0.0 | 0.0 | 0.02 | 1.35 | 1.35 | 82 | 1015.6 |
| 20260901154504 | 67 | 0 | 0.0 | 0.0 | 0.02 | 1.35 | 0.16 | 82 | 1015.6 |
| 20260901153504 | 67 | 190 | 0.0 | 1.0 | 0.02 | 1.35 | 0.16 | 82 | 1015.5 |
| 20260901153125 | 66 | 190 | 0.0 | 2.0 | 0.02 | 1.34 | 1.34 | 82 | 1015.5 |
| 20260901153004 | 67 | 191 | 0.0 | 2.0 | 0.02 | 1.34 | 0.15 | 82 | 1015.5 |
| 20260901152503 | 67 | 190 | 0.0 | 3.0 | 0.02 | 1.34 | 0.15 | 82 | 1015.7 |
| 20260901152004 | 67 | 190 | 0.0 | 3.0 | 0.02 | 1.34 | 0.15 | 82 | 1015.7 |
| 20260901151602 | 67 | 190 | 0.0 | 2.0 | 0.03 | 1.34 | 1.34 | 82 | 1015.6 |
| 20260901151003 | 67 | 0 | 0.0 | 0.0 | 0.03 | 1.34 | 0.15 | 82 | 1015.7 |
| 20260901150504 | 67 | 0 | 0.0 | 0.0 | 0.03 | 1.34 | 0.15 | 82 | 1015.7 |
| 20260901150114 | 67 | 190 | 0.0 | 0.0 | 0.03 | 1.34 | 1.34 | 82 | 1015.8 |
| 20260901150004 | 67 | 0 | 0.0 | 0.0 | 0.03 | 1.34 | 0.15 | 82 | 1015.9 |
| 20260901145504 | 67 | 0 | 0.0 | 0.0 | 0.03 | 1.33 | 0.14 | 82 | 1016.1 |
| 20260901145004 | 67 | 0 | 0.0 | 0.0 | 0.03 | 1.33 | 0.14 | 82 | 1016.1 |
| 20260901144603 | 67 | 190 | 0.0 | 0.0 | 0.03 | 1.33 | 1.33 | 82 | 1016.2 |
| 20260901144504 | 67 | 0 | 0.0 | 0.0 | 0.03 | 1.33 | 0.14 | 82 | 1016.1 |
| 20260901144004 | 67 | 0 | 0.0 | 0.0 | 0.04 | 1.33 | 0.14 | 82 | 1016.1 |
| 20260901143503 | 67 | 0 | 0.0 | 0.0 | 0.04 | 1.32 | 0.13 | 82 | 1016.2 |
| 20260901143120 | 67 | 190 | 0.0 | 0.0 | 0.04 | 1.32 | 1.32 | 82 | 1016.2 |
| 20260901143004 | 67 | 0 | 0.0 | 0.0 | 0.04 | 1.32 | 0.13 | 82 | 1016.2 |
| 20260901142004 | 67 | 0 | 0.0 | 0.0 | 0.07 | 1.32 | 0.13 | 82 | 1016.1 |
| 20260901141622 | 66 | 190 | 0.0 | 0.0 | 0.07 | 1.31 | 1.31 | 82 | 1016.1 |
| 20260901141504 | 67 | 0 | 0.0 | 0.0 | 0.08 | 1.31 | 0.12 | 82 | 1016.1 |
| 20260901141004 | 67 | 0 | 0.0 | 0.0 | 0.12 | 1.31 | 0.12 | 82 | 1016.2 |
| 20260901140504 | 67 | 0 | 0.0 | 0.0 | 0.12 | 1.31 | 0.12 | 82 | 1016.1 |
| 20260901140004 | 67 | 0 | 0.0 | 0.0 | 0.12 | 1.31 | 0.12 | 82 | 1016.2 |
| 20260901135004 | 67 | 0 | 0.0 | 0.0 | 0.11 | 1.30 | 0.11 | 82 | 1016.3 |
| 20260901134603 | 66 | 190 | 0.0 | 0.0 | 0.40 | 1.30 | 1.30 | 82 | 1016.4 |
| 20260901134504 | 66 | 0 | 0.0 | 0.0 | 0.11 | 1.30 | 0.11 | 82 | 1016.3 |
| 20260901134004 | 66 | 0 | 0.0 | 0.0 | 0.10 | 1.29 | 0.10 | 82 | 1016.1 |
| 20260901133504 | 66 | 0 | 0.0 | 0.0 | 0.09 | 1.28 | 0.09 | 82 | 1016.1 |
| 20260901133103 | 66 | 190 | 0.0 | 0.0 | 0.51 | 1.28 | 1.28 | 82 | 1016.2 |
| 20260901133003 | 66 | 0 | 0.0 | 0.0 | 0.09 | 1.28 | 0.09 | 82 | 1016.2 |
| 20260901132504 | 66 | 191 | 0.0 | 1.0 | 0.07 | 1.26 | 0.07 | 82 | 1016.2 |
| 20260901132004 | 66 | 191 | 0.0 | 1.0 | 0.06 | 1.25 | 0.06 | 82 | 1016.1 |
| 20260901131607 | 66 | 190 | 0.0 | 0.0 | 0.87 | 1.23 | 1.23 | 82 | 1016.1 |
| 20260901131504 | 66 | 0 | 0.0 | 0.0 | 0.00 | 1.19 | 0.00 | 82 | 1016.1 |
| 20260901130003 | 66 | 190 | 0.0 | 0.0 | 0.73 | 1.08 | 1.08 | 82 | 1016.5 |
| 20260901124605 | 66 | 190 | 0.0 | 0.0 | 0.62 | 0.91 | 0.91 | 82 | 1016.5 |
| 20260901123100 | 66 | 190 | 0.0 | 0.0 | 0.61 | 0.81 | 0.81 | 82 | 1016.6 |
| 20260901121605 | 66 | 190 | 0.0 | 0.0 | 0.23 | 0.37 | 0.37 | 82 | 1017.0 |
| 20260901120058 | 65 | 190 | 0.0 | 1.0 | 0.28 | 0.35 | 0.35 | 82 | 1016.1 |
| 20260901114557 | 65 | 190 | 0.0 | 0.0 | 0.23 | 0.28 | 0.28 | 82 | 1016.3 |
| 20260901113103 | 65 | 190 | 0.0 | 0.0 | 0.14 | 0.20 | 0.20 | 82 | 1016.4 |
| 20260901111556 | 65 | 190 | 0.0 | 0.0 | 0.08 | 0.14 | 0.14 | 82 | 1016.4 |
| 20260901110055 | 65 | 190 | 0.0 | 0.0 | 0.04 | 0.07 | 0.07 | 82 | 1016.4 |
| 20260901104557 | 65 | 190 | 0.0 | 0.0 | 0.04 | 0.06 | 0.06 | 82 | 1016.3 |
| 20260901103053 | 65 | 190 | 0.0 | 0.0 | 0.05 | 0.06 | 0.06 | 82 | 1016.1 |
| 20260901101603 | 65 | 190 | 0.0 | 0.0 | 0.05 | 0.06 | 0.06 | 82 | 1016.0 |
| 20260901100053 | 65 | 190 | 0.0 | 0.0 | 0.02 | 0.03 | 0.03 | 82 | 1015.9 |
| 20260901094551 | 65 | 190 | 0.0 | 0.0 | 0.01 | 0.02 | 0.02 | 82 | 1016.0 |
| 20260901093048 | 65 | 190 | 0.0 | 0.0 | 0.00 | 0.01 | 0.01 | 82 | 1016.0 |
| 20260901091555 | 65 | 190 | 0.0 | 0.0 | 0.00 | 0.01 | 0.01 | 82 | 1016.2 |
| 20260901090047 | 65 | 190 | 0.0 | 0.0 | 0.00 | 0.01 | 0.01 | 82 | 1016.3 |
| 20260901084545 | 65 | 190 | 0.0 | 0.0 | 0.00 | 0.01 | 0.01 | 82 | 1016.3 |
| 20260901083045 | 65 | 190 | 0.0 | 0.0 | 0.00 | 0.01 | 0.01 | 82 | 1016.4 |
| 20260901081545 | 65 | 190 | 0.0 | 0.0 | 0.00 | 0.01 | 0.01 | 82 | 1016.3 |
| 20260901080136 | 65 | 190 | 0.0 | 0.0 | 0.01 | 0.01 | 0.01 | 82 | 1016.3 |
| 20260901074539 | 65 | 190 | 0.0 | 0.0 | 0.01 | 0.01 | 0.01 | 82 | 1016.7 |
| 20260901073037 | 65 | 190 | 0.0 | 0.0 | 0.01 | 0.01 | 0.01 | 81 | 1016.8 |
| 20260901071540 | 66 | 190 | 0.0 | 0.0 | 0.01 | 0.01 | 0.01 | 81 | 1016.9 |
| 20260901070036 | 66 | 190 | 0.0 | 0.0 | 0.00 | 0.00 | 0.00 | 80 | 1017.2 |
| 20260901064532 | 66 | 190 | 0.0 | 0.0 | 0.00 | 0.00 | 0.00 | 79 | 1017.2 |
| 20260901063050 | 66 | 190 | 0.0 | 0.0 | 0.00 | 0.00 | 0.00 | 78 | 1017.2 |
| 20260901061530 | 66 | 190 | 0.0 | 0.0 | 0.00 | 0.00 | 0.00 | 78 | 1017.1 |
| 20260901060028 | 66 | 190 | 0.0 | 0.0 | 0.00 | 0.00 | 0.00 | 77 | 1017.0 |
| 20260901054528 | 66 | 190 | 0.0 | 0.0 | 0.00 | 0.00 | 0.00 | 77 | 1017.4 |
| 20260901053032 | 67 | 190 | 0.0 | 0.0 | 0.00 | 0.00 | 0.00 | 77 | 1017.4 |
| 20260901051523 | 67 | 190 | 0.0 | 0.0 | 0.00 | 0.00 | 0.00 | 77 | 1017.5 |
| 20260901050022 | 67 | 190 | 0.0 | 0.0 | 0.00 | 0.00 | 0.00 | 76 | 1017.6 |
| 20260901044520 | 67 | 190 | 0.0 | 0.0 | 0.00 | 0.00 | 0.00 | 76 | 1017.5 |
| 20260901043028 | 67 | 190 | 0.0 | 0.0 | 0.00 | 0.00 | 0.00 | 74 | 1017.4 |
| 20260901041518 | 67 | 190 | 0.0 | 0.0 | 0.00 | 0.00 | 0.00 | 74 | 1017.5 |
| 20260901040016 | 67 | 190 | 0.0 | 0.0 | 0.00 | 0.00 | 0.00 | 76 | 1017.5 |
| 20260901034516 | 67 | 190 | 0.0 | 0.0 | 0.00 | 0.00 | 0.00 | 76 | 1017.6 |
| 20260901033018 | 67 | 190 | 0.0 | 0.0 | 0.00 | 0.00 | 0.00 | 77 | 1017.7 |
| 20260901031514 | 68 | 190 | 0.0 | 0.0 | 0.00 | 0.00 | 0.00 | 73 | 1017.8 |
| 20260901031005 | 68 | 0 | 0.0 | 0.0 | 0.00 | 0.00 | 0.00 | 74 | 1017.6 |
| 20260901030504 | 68 | 0 | 0.0 | 0.0 | 0.00 | 0.00 | 0.00 | 75 | 1017.7 |
| 20260901030016 | 68 | 190 | 0.0 | 0.0 | 0.00 | 0.00 | 0.00 | 74 | 1017.9 |
| 20260901030004 | 68 | 0 | 0.0 | 0.0 | 0.00 | 0.00 | 0.00 | 74 | 1017.8 |
| 20260901025504 | 68 | 0 | 0.0 | 0.0 | 0.00 | 0.00 | 0.00 | 74 | 1017.9 |
| 20260901025004 | 68 | 0 | 0.0 | 0.0 | 0.00 | 0.00 | 0.00 | 74 | 1017.8 |
| 20260901024514 | 68 | 190 | 0.0 | 0.0 | 0.00 | 0.00 | 0.00 | 74 | 1017.9 |
| 20260901024505 | 68 | 0 | 0.0 | 0.0 | 0.00 | 0.00 | 0.00 | 74 | 1017.8 |
| 20260901023505 | 68 | 0 | 0.0 | 0.0 | 0.00 | 0.00 | 0.00 | 74 | 1017.6 |
| 20260901023017 | 68 | 190 | 0.0 | 0.0 | 0.00 | 0.00 | 0.00 | 74 | 1017.7 |
| 20260901023005 | 68 | 0 | 0.0 | 0.0 | 0.00 | 0.00 | 0.00 | 74 | 1017.6 |
| 20260901022505 | 69 | 0 | 0.0 | 0.0 | 0.00 | 0.00 | 0.00 | 73 | 1017.6 |
| 20260901022005 | 69 | 0 | 0.0 | 0.0 | 0.00 | 0.00 | 0.00 | 73 | 1017.5 |
| 20260901021516 | 68 | 190 | 0.0 | 0.0 | 0.00 | 0.00 | 0.00 | 72 | 1017.6 |
| 20260901021005 | 69 | 191 | 0.0 | 2.0 | 0.00 | 0.00 | 0.00 | 72 | 1017.4 |
| 20260901020505 | 69 | 0 | 0.0 | 0.0 | 0.00 | 0.00 | 0.00 | 72 | 1017.4 |
| 20260901020016 | 68 | 190 | 0.0 | 0.0 | 0.00 | 0.00 | 0.00 | 72 | 1017.6 |
| 20260901020005 | 69 | 0 | 0.0 | 0.0 | 0.00 | 0.00 | 0.00 | 72 | 1017.5 |
| 20260901015505 | 69 | 0 | 0.0 | 0.0 | 0.00 | 0.00 | 0.00 | 72 | 1017.5 |
| 20260901015005 | 69 | 0 | 0.0 | 0.0 | 0.00 | 0.00 | 0.00 | 71 | 1017.6 |
| 20260901014513 | 69 | 190 | 0.0 | 0.0 | 0.00 | 0.00 | 0.00 | 71 | 1017.7 |
| 20260901014505 | 69 | 0 | 0.0 | 0.0 | 0.00 | 0.00 | 0.00 | 71 | 1017.4 |
| 20260901014005 | 70 | 0 | 0.0 | 0.0 | 0.00 | 0.00 | 0.00 | 72 | 1017.5 |
| 20260901013504 | 70 | 0 | 0.0 | 0.0 | 0.00 | 0.00 | 0.00 | 70 | 1017.5 |
| 20260901013015 | 69 | 190 | 0.0 | 0.0 | 0.00 | 0.00 | 0.00 | 70 | 1017.6 |
| 20260901013005 | 70 | 0 | 0.0 | 0.0 | 0.00 | 0.00 | 0.00 | 70 | 1017.5 |
| 20260901012504 | 70 | 0 | 0.0 | 0.0 | 0.00 | 0.00 | 0.00 | 70 | 1017.5 |
| 20260901012004 | 70 | 0 | 0.0 | 0.0 | 0.00 | 0.00 | 0.00 | 70 | 1017.7 |
| 20260901011523 | 69 | 190 | 0.0 | 0.0 | 0.00 | 0.00 | 0.00 | 70 | 1017.7 |
| 20260901011005 | 70 | 191 | 0.0 | 2.0 | 0.00 | 0.00 | 0.00 | 70 | 1017.7 |
| 20260901010505 | 69 | 191 | 0.0 | 2.0 | 0.00 | 0.00 | 0.00 | 72 | 1017.6 |
| 20260901010015 | 69 | 190 | 0.0 | 0.0 | 0.00 | 0.00 | 0.00 | 74 | 1017.7 |
| 20260901010005 | 69 | 0 | 0.0 | 0.0 | 0.00 | 0.00 | 0.00 | 74 | 1017.6 |
| 20260901005005 | 69 | 0 | 0.0 | 0.0 | 0.00 | 0.00 | 0.00 | 75 | 1017.7 |
| 20260901004514 | 69 | 190 | 0.0 | 0.0 | 0.00 | 0.00 | 0.00 | 76 | 1017.8 |
| 20260901004505 | 69 | 0 | 0.0 | 0.0 | 0.00 | 0.00 | 0.00 | 76 | 1017.7 |
| 20260901004005 | 70 | 0 | 0.0 | 0.0 | 0.00 | 0.00 | 0.00 | 77 | 1017.7 |
| 20260901003505 | 70 | 0 | 0.0 | 0.0 | 0.00 | 0.00 | 0.00 | 77 | 1017.6 |
| 20260901003014 | 69 | 190 | 0.0 | 0.0 | 0.00 | 0.00 | 0.00 | 77 | 1017.7 |
| 20260901002504 | 70 | 0 | 0.0 | 0.0 | 0.00 | 0.00 | 0.00 | 77 | 1017.5 |
| 20260901002005 | 70 | 0 | 0.0 | 0.0 | 0.00 | 0.00 | 0.00 | 77 | 1017.6 |
| 20260901001513 | 69 | 190 | 0.0 | 0.0 | 0.00 | 0.00 | 0.00 | 77 | 1017.7 |
| 20260901001505 | 70 | 0 | 0.0 | 0.0 | 0.00 | 0.00 | 0.00 | 77 | 1017.6 |
| 20260901001004 | 70 | 0 | 0.0 | 0.0 | 0.00 | 0.00 | 0.00 | 77 | 1017.5 |
| 20260901000504 | 70 | 0 | 0.0 | 0.0 | 0.00 | 0.00 | 0.00 | 77 | 1017.4 |
| 20260901000019 | 69 | 190 | 0.0 | 0.0 | 0.00 | 0.00 | 0.00 | 77 | 1017.5 |
| 20260831235504 | 70 | 0 | 0.0 | 0.0 | 0.00 | 0.00 | 0.00 | 77 | 1017.4 |
| 20260831235005 | 70 | 0 | 0.0 | 0.0 | 0.00 | 0.00 | 0.00 | 77 | 1017.5 |
| 20260831234514 | 70 | 190 | 0.0 | 0.0 | 0.00 | 0.00 | 0.00 | 77 | 1017.5 |
| 20260831234505 | 70 | 0 | 0.0 | 0.0 | 0.00 | 0.00 | 0.00 | 77 | 1017.4 |
| 20260831233505 | 70 | 0 | 0.0 | 0.0 | 0.00 | 0.00 | 0.00 | 77 | 1017.5 |
| 20260831233013 | 70 | 190 | 0.0 | 0.0 | 0.00 | 0.00 | 0.00 | 76 | 1017.7 |
| 20260831232505 | 70 | 0 | 0.0 | 0.0 | 0.00 | 0.00 | 0.00 | 76 | 1017.7 |
| 20260831231523 | 70 | 190 | 0.0 | 0.0 | 0.00 | 0.00 | 0.00 | 75 | 1017.8 |
| 20260831231505 | 71 | 0 | 0.0 | 0.0 | 0.00 | 0.00 | 0.00 | 75 | 1017.8 |
| 20260831231005 | 71 | 0 | 0.0 | 0.0 | 0.00 | 0.00 | 0.00 | 75 | 1017.8 |
| 20260831230504 | 71 | 0 | 0.0 | 0.0 | 0.00 | 0.00 | 0.00 | 74 | 1017.7 |